Terminal Aerodrome Forecast
Issued by NWS

Home | Current Version | Previous Version | Text Only | Print | Product List | Glossary On
Versions: 1 2 3 4 5 6 7 8 9 10 11 12
410
FTUS44 KBMX 212340
TAFTOI
TAF
KTOI 212340Z 2200/2224 13005KT P6SM SCT250
     FM221600 16008KT P6SM VCSH BKN025
     FM222000 18008G16KT P6SM OVC015 PROB30 2221/2224 6SM -TSRA
      BKN009CB=

USA.gov is the U.S. government's official web portal to all federal, state and local government web resources and services.